Chisago Lake, Minnesota
Current Conditions -  °F | °C
As of 10:35 AM on Monday 26 Jan 2015 (Local Time) from KOEO Reporting Station
Overcast Overcast  
Wind Chill: 26°   Ceiling: 1700
Heat Index: 31°   Visibility: 10mi
Dew Point: 31°   Wind: 5mph
Humidity: 99%   Direction: 230°SW
Pressure: 29.72"   Gusts: NA
Location:  45.4307°N, 92.7947°W
Report Text: KOEO 261635Z AUTO 23004KT 10SM OVC017 00/M01 A2972 RMK AO2 T10051006
Loading
Personal Weather Stations






























Interactive Weather Map New forecast layout! Learn more

10-Day Weather Forecast

Advertisements
Track Severe Weather on mobile